createdAt,value
2018-09-14T00:00:37.711Z,14.27
2018-09-14T00:03:07.116Z,13.20
2018-09-14T00:05:35.216Z,14.00
2018-09-14T00:08:04.179Z,15.50
2018-09-14T00:10:32.310Z,15.50
2018-09-14T00:13:00.422Z,14.13
2018-09-14T00:15:28.529Z,16.50
2018-09-14T00:17:56.647Z,17.00
2018-09-14T00:20:24.747Z,15.97
2018-09-14T00:22:52.864Z,16.50
2018-09-14T00:25:20.963Z,15.33
2018-09-14T00:27:49.114Z,18.90
2018-09-14T00:30:17.355Z,17.27
2018-09-14T00:32:45.446Z,18.17
2018-09-14T00:35:13.534Z,18.13
2018-09-14T00:37:41.799Z,20.37
2018-09-14T00:40:10.339Z,21.00
2018-09-14T00:42:38.459Z,23.50
2018-09-14T00:45:06.564Z,23.77
2018-09-14T00:47:34.659Z,21.87
2018-09-14T00:50:02.776Z,23.63
2018-09-14T00:52:30.895Z,24.30
2018-09-14T00:54:58.999Z,22.27
2018-09-14T00:57:27.097Z,23.50
2018-09-14T00:59:55.202Z,25.40
2018-09-14T01:02:23.363Z,25.03
2018-09-14T01:04:51.482Z,24.00
2018-09-14T01:07:19.598Z,24.97
2018-09-14T01:09:47.698Z,25.17
2018-09-14T01:12:15.820Z,22.87
2018-09-14T01:14:43.934Z,25.20
2018-09-14T01:17:12.036Z,26.47
2018-09-14T01:19:40.159Z,25.20
2018-09-14T01:22:08.331Z,27.40
2018-09-14T01:24:36.431Z,24.37
2018-09-14T01:27:04.538Z,26.87
2018-09-14T01:29:32.655Z,24.97
2018-09-14T01:32:00.744Z,25.57
2018-09-14T01:34:28.850Z,23.07
2018-09-14T01:36:56.972Z,24.80
2018-09-14T01:39:25.073Z,25.13
2018-09-14T01:41:53.170Z,22.50
2018-09-14T01:44:21.297Z,23.60
2018-09-14T01:46:49.379Z,22.57
2018-09-14T01:49:17.487Z,23.83
2018-09-14T01:51:45.583Z,20.83
2018-09-14T01:54:13.703Z,19.50
2018-09-14T01:56:41.798Z,20.07
2018-09-14T01:59:09.895Z,19.77
2018-09-14T02:01:38.008Z,19.90
2018-09-14T02:04:06.113Z,20.30
2018-09-14T02:06:34.207Z,20.40
2018-09-14T02:09:02.320Z,21.77
2018-09-14T02:11:30.415Z,22.47
2018-09-14T02:13:58.522Z,18.90
2018-09-14T02:16:26.616Z,20.43
2018-09-14T02:18:54.721Z,19.43
2018-09-14T02:21:23.383Z,20.33
2018-09-14T02:23:51.487Z,19.87
2018-09-14T02:26:19.683Z,19.13
2018-09-14T02:28:47.779Z,19.53
2018-09-14T02:31:15.884Z,19.20
2018-09-14T02:33:44.051Z,19.80
2018-09-14T02:36:12.331Z,19.23
2018-09-14T02:38:40.436Z,19.20
2018-09-14T02:41:08.541Z,20.80
2018-09-14T02:43:36.630Z,17.60
2018-09-14T02:46:04.731Z,18.40
2018-09-14T02:48:32.850Z,17.83
2018-09-14T02:51:00.947Z,19.13
2018-09-14T02:53:29.035Z,18.47
2018-09-14T02:55:57.148Z,18.00
2018-09-14T02:58:25.258Z,18.07
2018-09-14T03:00:53.360Z,17.17
2018-09-14T03:03:21.491Z,17.67
2018-09-14T03:05:49.591Z,18.80
2018-09-14T03:08:17.719Z,18.27
2018-09-14T03:10:45.841Z,18.57
2018-09-14T03:13:13.930Z,19.77
2018-09-14T03:15:42.034Z,19.43
2018-09-14T03:18:10.129Z,18.83
2018-09-14T03:20:38.226Z,19.30
2018-09-14T03:23:06.358Z,17.33
2018-09-14T03:25:34.476Z,18.50
2018-09-14T03:28:02.607Z,17.80
2018-09-14T03:30:30.716Z,18.47
2018-09-14T03:32:58.904Z,20.50
2018-09-14T03:35:27.000Z,18.13
2018-09-14T03:37:55.139Z,18.07
2018-09-14T03:40:23.320Z,18.17
2018-09-14T03:42:51.443Z,18.80
2018-09-14T03:45:19.553Z,18.70
2018-09-14T03:47:47.739Z,18.60
2018-09-14T03:50:15.838Z,17.60
2018-09-14T03:52:43.952Z,19.60
2018-09-14T03:55:12.044Z,17.30
2018-09-14T03:57:40.115Z,16.73
2018-09-14T04:00:08.213Z,19.40
2018-09-14T04:02:36.335Z,18.33
2018-09-14T04:05:04.481Z,19.27
2018-09-14T04:07:32.576Z,19.90
2018-09-14T04:10:00.686Z,17.00
2018-09-14T04:12:28.814Z,18.80
2018-09-14T04:14:56.895Z,18.83
2018-09-14T04:17:24.982Z,18.00
2018-09-14T04:19:53.079Z,19.00
2018-09-14T04:22:21.191Z,18.93
2018-09-14T04:24:49.283Z,19.13
2018-09-14T04:27:17.387Z,19.80
2018-09-14T04:29:45.488Z,18.83
2018-09-14T04:32:13.583Z,19.47
2018-09-14T04:34:41.715Z,18.43
2018-09-14T04:37:09.806Z,19.40
2018-09-14T04:39:37.915Z,19.03
2018-09-14T04:42:06.016Z,19.77
2018-09-14T04:44:34.107Z,22.33
2018-09-14T04:47:02.213Z,23.13
2018-09-14T04:49:30.331Z,20.87
2018-09-14T04:51:58.444Z,21.23
2018-09-14T04:54:26.548Z,24.30
2018-09-14T04:56:54.650Z,22.30
2018-09-14T04:59:22.779Z,21.80
2018-09-14T05:01:50.873Z,23.60
2018-09-14T05:04:18.972Z,23.80
2018-09-14T05:06:47.084Z,24.67
2018-09-14T05:09:15.183Z,23.90
2018-09-14T05:11:43.286Z,24.23
2018-09-14T05:14:11.401Z,22.50
2018-09-14T05:16:39.485Z,25.07
2018-09-14T05:19:07.584Z,25.53
2018-09-14T05:21:35.692Z,25.23
2018-09-14T05:24:03.888Z,21.73
2018-09-14T05:26:31.939Z,23.03
2018-09-14T05:29:00.096Z,21.63
2018-09-14T05:31:28.239Z,21.17
2018-09-14T05:33:56.339Z,22.73
2018-09-14T05:36:24.445Z,22.13
2018-09-14T05:38:52.559Z,20.80
2018-09-14T05:41:20.651Z,21.07
2018-09-14T05:43:48.773Z,21.03
2018-09-14T05:46:16.871Z,20.13
2018-09-14T05:48:44.965Z,18.90
2018-09-14T05:51:13.070Z,19.83
2018-09-14T05:53:41.171Z,20.20
2018-09-14T05:56:09.280Z,20.30
2018-09-14T05:58:37.356Z,20.53
2018-09-14T06:01:05.493Z,20.40
2018-09-14T06:03:33.630Z,20.30
2018-09-14T06:06:01.676Z,22.37
2018-09-14T06:08:29.777Z,21.47
2018-09-14T06:10:57.895Z,23.93
2018-09-14T06:13:26.026Z,22.97
2018-09-14T06:15:54.175Z,22.23
2018-09-14T06:18:22.323Z,22.40
2018-09-14T06:20:50.431Z,21.83
2018-09-14T06:23:18.545Z,23.33
2018-09-14T06:25:46.776Z,22.33
2018-09-14T06:28:14.883Z,22.80
2018-09-14T06:30:42.978Z,23.60
2018-09-14T06:33:11.068Z,22.83
2018-09-14T06:35:39.191Z,24.90
2018-09-14T06:38:07.341Z,23.67
2018-09-14T06:40:35.413Z,24.63
2018-09-14T06:43:03.549Z,25.47
2018-09-14T06:45:31.706Z,24.27
2018-09-14T06:47:59.764Z,23.73
2018-09-14T06:50:27.859Z,25.63
2018-09-14T06:52:55.954Z,24.17
2018-09-14T06:55:24.082Z,22.50
2018-09-14T06:57:52.178Z,21.90
2018-09-14T07:00:20.491Z,22.30
2018-09-14T07:02:48.400Z,24.67
2018-09-14T07:05:16.493Z,23.93
2018-09-14T07:07:45.474Z,24.07
2018-09-14T07:10:13.584Z,24.47
2018-09-14T07:12:41.696Z,24.83
2018-09-14T07:15:09.799Z,23.30
2018-09-14T07:17:37.896Z,22.63
2018-09-14T07:20:05.979Z,23.20
2018-09-14T07:22:34.084Z,21.97
2018-09-14T07:25:02.188Z,20.87
2018-09-14T07:27:30.288Z,24.60
2018-09-14T07:29:58.393Z,24.00
2018-09-14T07:32:26.508Z,21.30
2018-09-14T07:34:54.581Z,21.77
2018-09-14T07:37:22.690Z,18.63
2018-09-14T07:39:50.891Z,17.00
2018-09-14T07:42:19.043Z,17.43
2018-09-14T07:44:47.122Z,17.67
2018-09-14T07:47:15.215Z,15.40
2018-09-14T07:49:43.331Z,15.37
2018-09-14T07:52:11.475Z,17.00
2018-09-14T07:54:39.566Z,14.50
2018-09-14T07:57:07.670Z,12.63
2018-09-14T07:59:35.779Z,14.07
2018-09-14T08:02:03.910Z,14.53
2018-09-14T08:04:32.023Z,15.33
2018-09-14T08:07:00.154Z,15.83
2018-09-14T08:09:28.274Z,17.10
2018-09-14T08:11:56.419Z,16.77
2018-09-14T08:14:24.471Z,16.27
2018-09-14T08:16:52.571Z,14.60
2018-09-14T08:19:20.671Z,15.73
2018-09-14T08:21:48.809Z,15.67
2018-09-14T08:24:16.872Z,14.63
2018-09-14T08:26:45.049Z,13.00
2018-09-14T08:29:13.095Z,14.60
2018-09-14T08:31:41.202Z,13.00
2018-09-14T08:34:09.394Z,13.73
2018-09-14T08:36:37.491Z,14.10
2018-09-14T08:39:08.397Z,15.97
2018-09-14T08:41:36.497Z,14.00
2018-09-14T08:44:04.628Z,13.07
2018-09-14T08:46:32.721Z,12.43
2018-09-14T08:49:00.820Z,12.87
2018-09-14T08:51:28.962Z,12.80
2018-09-14T08:53:57.054Z,11.20
2018-09-14T08:56:25.171Z,9.90
2018-09-14T08:58:53.265Z,9.80
2018-09-14T09:01:21.372Z,10.20
2018-09-14T09:03:49.478Z,9.87
2018-09-14T09:06:17.561Z,9.10
2018-09-14T09:08:45.664Z,8.03
2018-09-14T09:11:13.768Z,8.93
2018-09-14T09:13:41.865Z,10.07
2018-09-14T09:16:09.950Z,8.07
2018-09-14T09:18:38.054Z,8.87
2018-09-14T09:21:06.161Z,8.60
2018-09-14T09:23:34.317Z,8.17
2018-09-14T09:26:02.364Z,9.00
2018-09-14T09:28:30.468Z,7.77
2018-09-14T09:30:58.560Z,7.50
2018-09-14T09:33:26.670Z,8.70
2018-09-14T09:35:54.782Z,7.83
2018-09-14T09:38:22.867Z,7.80
2018-09-14T09:40:50.963Z,9.00
2018-09-14T09:43:19.129Z,7.23
2018-09-14T09:45:47.146Z,6.30
2018-09-14T09:48:15.244Z,6.50
2018-09-14T09:50:43.344Z,7.90
2018-09-14T09:53:11.435Z,8.10
2018-09-14T09:55:39.540Z,6.93
2018-09-14T09:58:07.983Z,7.20
2018-09-14T10:00:41.652Z,7.43
2018-09-14T10:03:16.029Z,7.07
2018-09-14T10:05:49.700Z,7.47
2018-09-14T10:08:17.926Z,7.33
2018-09-14T10:10:46.040Z,7.67
2018-09-14T10:13:14.123Z,6.97
2018-09-14T10:15:42.214Z,7.83
2018-09-14T10:18:10.299Z,7.13
2018-09-14T10:20:38.392Z,6.70
2018-09-14T10:23:06.469Z,7.70
2018-09-14T10:25:34.571Z,6.90
2018-09-14T10:28:02.651Z,7.90
2018-09-14T10:30:30.740Z,6.83
2018-09-14T10:32:58.828Z,7.27
2018-09-14T10:35:26.942Z,7.80
2018-09-14T10:37:55.106Z,6.17
2018-09-14T10:40:23.297Z,6.20
2018-09-14T10:42:51.432Z,6.40
2018-09-14T10:45:19.533Z,7.90
2018-09-14T10:47:47.613Z,7.27
2018-09-14T10:50:15.699Z,6.43
2018-09-14T10:52:43.789Z,7.43
2018-09-14T10:55:12.080Z,5.80
2018-09-14T10:57:40.120Z,5.80
2018-09-14T11:00:08.203Z,6.30
2018-09-14T11:02:36.300Z,6.47
2018-09-14T11:05:04.390Z,5.53
2018-09-14T11:07:32.544Z,5.30
2018-09-14T11:10:00.660Z,7.13
2018-09-14T11:12:28.715Z,7.13
2018-09-14T11:14:56.776Z,7.30
2018-09-14T11:17:24.886Z,6.50
2018-09-14T11:19:53.019Z,6.53
2018-09-14T11:22:21.278Z,6.60
2018-09-14T11:24:49.614Z,7.40
2018-09-14T11:27:17.571Z,6.10
2018-09-14T11:29:45.658Z,6.87
2018-09-14T11:32:13.791Z,6.83
2018-09-14T11:34:41.889Z,5.70
2018-09-14T11:37:10.007Z,6.30
2018-09-14T11:39:38.080Z,7.47
2018-09-14T11:42:06.201Z,6.17
2018-09-14T11:44:34.283Z,7.00
2018-09-14T11:47:02.372Z,6.70
2018-09-14T11:49:30.442Z,5.90
2018-09-14T11:51:58.527Z,6.97
2018-09-14T11:54:26.681Z,5.50
2018-09-14T11:56:54.746Z,6.63
2018-09-14T11:59:22.834Z,5.50
2018-09-14T12:01:50.932Z,7.47
2018-09-14T12:04:19.089Z,6.20
2018-09-14T12:06:47.131Z,5.53
2018-09-14T12:09:15.306Z,5.83
2018-09-14T12:11:43.406Z,5.40
2018-09-14T12:14:11.579Z,5.00
2018-09-14T12:16:39.641Z,6.33
2018-09-14T12:19:07.742Z,5.27
2018-09-14T12:21:35.836Z,5.00
2018-09-14T12:24:03.937Z,6.60
2018-09-14T12:26:32.043Z,6.00
2018-09-14T12:29:00.146Z,5.60
2018-09-14T12:31:28.223Z,6.43
2018-09-14T12:33:56.320Z,7.40
2018-09-14T12:36:24.419Z,7.33
2018-09-14T12:38:52.530Z,7.33
2018-09-14T12:41:20.608Z,6.13
2018-09-14T12:43:48.690Z,7.37
2018-09-14T12:46:16.873Z,6.57
2018-09-14T12:48:45.062Z,5.67
2018-09-14T12:51:13.072Z,6.90
2018-09-14T12:53:41.180Z,7.50
2018-09-14T12:56:09.281Z,7.00
2018-09-14T12:58:37.382Z,6.00
2018-09-14T13:01:05.486Z,8.40
2018-09-14T13:03:33.657Z,7.40
2018-09-14T13:06:01.741Z,6.73
2018-09-14T13:08:29.831Z,5.83
2018-09-14T13:10:57.932Z,5.20
2018-09-14T13:13:26.039Z,6.07
2018-09-14T13:15:54.131Z,6.10
2018-09-14T13:18:22.240Z,6.90
2018-09-14T13:20:50.342Z,5.37
2018-09-14T13:23:18.535Z,6.20
2018-09-14T13:25:46.643Z,5.60
2018-09-14T13:28:14.838Z,6.27
2018-09-14T13:30:42.930Z,5.50
2018-09-14T13:33:11.031Z,5.90
2018-09-14T13:35:39.124Z,5.70
2018-09-14T13:38:07.245Z,7.77
2018-09-14T13:40:35.311Z,6.23
2018-09-14T13:43:03.408Z,5.50
2018-09-14T13:45:31.497Z,6.53
2018-09-14T13:47:59.597Z,5.70
2018-09-14T13:50:27.677Z,6.00
2018-09-14T13:52:55.865Z,5.73
2018-09-14T13:55:23.855Z,5.60
2018-09-14T13:57:51.939Z,5.07
2018-09-14T14:00:20.051Z,4.67
2018-09-14T14:02:48.143Z,4.77
2018-09-14T14:05:16.243Z,5.60
2018-09-14T14:07:44.372Z,6.20
2018-09-14T14:10:12.503Z,5.30
2018-09-14T14:12:40.556Z,5.17
2018-09-14T14:15:08.647Z,4.90
2018-09-14T14:17:36.976Z,3.70
2018-09-14T14:20:04.818Z,3.50
2018-09-14T14:22:32.890Z,4.50
2018-09-14T14:25:00.988Z,3.10
2018-09-14T14:27:29.253Z,3.70
2018-09-14T14:29:57.439Z,3.80
2018-09-14T14:32:25.525Z,2.83
2018-09-14T14:34:53.679Z,3.17
2018-09-14T14:37:21.766Z,4.00
2018-09-14T14:39:49.898Z,3.40
2018-09-14T14:42:17.985Z,3.20
2018-09-14T14:44:46.151Z,3.57
2018-09-14T14:47:14.243Z,3.23
2018-09-14T14:49:42.350Z,2.80
2018-09-14T14:52:10.586Z,4.27
2018-09-14T14:54:38.679Z,2.70
2018-09-14T14:57:06.752Z,2.57
2018-09-14T14:59:34.866Z,2.60
2018-09-14T15:02:03.104Z,3.07
2018-09-14T15:04:31.246Z,3.10
2018-09-14T15:06:59.345Z,2.80
2018-09-14T15:09:27.426Z,3.33
2018-09-14T15:11:55.516Z,2.60
2018-09-14T15:14:23.611Z,4.17
2018-09-14T15:16:51.699Z,2.47
2018-09-14T15:19:19.980Z,2.83
2018-09-14T15:21:47.903Z,3.10
2018-09-14T15:24:16.032Z,3.30
2018-09-14T15:26:44.151Z,3.17
2018-09-14T15:29:12.228Z,3.30
2018-09-14T15:31:40.374Z,3.57
2018-09-14T15:34:08.468Z,3.40
2018-09-14T15:36:36.984Z,3.23
2018-09-14T15:39:08.526Z,3.00
2018-09-14T15:41:36.635Z,3.77
2018-09-14T15:44:04.789Z,2.87
2018-09-14T15:46:32.902Z,3.10
2018-09-14T15:49:01.046Z,2.77
2018-09-14T15:51:29.112Z,3.10
2018-09-14T15:53:57.211Z,3.97
2018-09-14T15:56:25.319Z,3.50
2018-09-14T15:58:53.487Z,3.03
2018-09-14T16:01:21.583Z,3.27
2018-09-14T16:03:49.678Z,3.30
2018-09-14T16:06:17.809Z,3.10
2018-09-14T16:08:45.944Z,2.63
2018-09-14T16:11:14.155Z,3.70
2018-09-14T16:13:42.270Z,2.93
2018-09-14T16:16:10.328Z,2.90
2018-09-14T16:18:38.412Z,3.60
2018-09-14T16:21:06.637Z,4.27
2018-09-14T16:23:34.835Z,3.13
2018-09-14T16:26:02.918Z,3.00
2018-09-14T16:28:31.062Z,3.10
2018-09-14T16:30:59.175Z,2.67
2018-09-14T16:33:27.269Z,3.47
2018-09-14T16:35:55.351Z,2.90
2018-09-14T16:38:23.448Z,3.50
2018-09-14T16:40:52.052Z,2.97
2018-09-14T16:43:20.595Z,3.60
2018-09-14T16:45:48.737Z,3.80
2018-09-14T16:48:16.875Z,3.80
2018-09-14T16:50:44.982Z,3.57
2018-09-14T16:53:13.066Z,4.57
2018-09-14T16:55:42.876Z,3.10
2018-09-14T16:58:11.133Z,3.37
2018-09-14T17:00:39.235Z,3.33
2018-09-14T17:03:07.352Z,3.70
2018-09-14T17:05:35.450Z,3.53
2018-09-14T17:08:03.550Z,3.37
2018-09-14T17:10:31.655Z,3.43
2018-09-14T17:12:59.750Z,2.83
2018-09-14T17:15:28.371Z,3.07
2018-09-14T17:17:56.491Z,3.93
2018-09-14T17:20:24.579Z,3.53
2018-09-14T17:22:52.675Z,3.50
2018-09-14T17:25:24.223Z,2.97
2018-09-14T17:27:52.438Z,3.73
2018-09-14T17:30:20.535Z,3.23
2018-09-14T17:32:48.635Z,4.80
2018-09-14T17:35:16.807Z,3.80
2018-09-14T17:37:44.917Z,3.20
2018-09-14T17:40:13.048Z,3.80
2018-09-14T17:42:41.137Z,3.70
2018-09-14T17:45:09.317Z,4.40
2018-09-14T17:47:37.458Z,3.93
2018-09-14T17:50:06.243Z,3.50
2018-09-14T17:52:35.503Z,3.03
2018-09-14T17:55:03.595Z,3.53
2018-09-14T17:57:31.854Z,3.40
2018-09-14T17:59:59.955Z,3.00
2018-09-14T18:02:28.072Z,3.07
2018-09-14T18:04:56.176Z,3.50
2018-09-14T18:07:24.284Z,2.87
2018-09-14T18:09:52.394Z,3.50
2018-09-14T18:12:20.531Z,3.30
2018-09-14T18:14:48.611Z,3.57
2018-09-14T18:17:16.766Z,3.23
2018-09-14T18:19:44.871Z,3.60
2018-09-14T18:22:13.013Z,3.20
2018-09-14T18:24:41.109Z,3.70
2018-09-14T18:27:09.218Z,3.40
2018-09-14T18:29:37.307Z,3.93
2018-09-14T18:32:05.408Z,3.47
2018-09-14T18:34:33.502Z,3.37
2018-09-14T18:37:01.848Z,3.30
2018-09-14T18:39:29.924Z,3.07
2018-09-14T18:41:58.026Z,3.47
2018-09-14T18:44:26.152Z,4.30
2018-09-14T18:46:54.345Z,3.43
2018-09-14T18:49:22.371Z,3.60
2018-09-14T18:51:50.493Z,3.90
2018-09-14T18:54:18.731Z,3.30
2018-09-14T18:56:46.749Z,3.70
2018-09-14T18:59:14.943Z,4.27
2018-09-14T19:01:43.426Z,3.70
2018-09-14T19:04:11.538Z,3.67
2018-09-14T19:06:39.621Z,3.70
2018-09-14T19:09:09.235Z,4.13
2018-09-14T19:11:37.520Z,4.27
2018-09-14T19:14:05.793Z,3.73
2018-09-14T19:16:34.379Z,4.10
2018-09-14T19:19:02.487Z,4.40
2018-09-14T19:21:30.663Z,4.27
2018-09-14T19:23:58.766Z,3.87
2018-09-14T19:26:26.916Z,3.93
2018-09-14T19:28:55.007Z,3.70
2018-09-14T19:31:23.130Z,3.80
2018-09-14T19:33:51.224Z,4.30
2018-09-14T19:36:19.474Z,5.00
2018-09-14T19:38:47.562Z,3.93
2018-09-14T19:41:15.719Z,5.70
2018-09-14T19:43:43.809Z,4.77
2018-09-14T19:46:11.911Z,4.20
2018-09-14T19:48:40.015Z,5.27
2018-09-14T19:51:08.107Z,4.77
2018-09-14T19:53:36.229Z,5.10
2018-09-14T19:56:04.314Z,4.77
2018-09-14T19:58:32.415Z,5.30
2018-09-14T20:01:00.527Z,4.87
2018-09-14T20:03:28.620Z,4.07
2018-09-14T20:05:56.719Z,5.10
2018-09-14T20:08:24.820Z,4.70
2018-09-14T20:10:52.927Z,4.97
2018-09-14T20:13:21.020Z,5.53
2018-09-14T20:15:49.354Z,5.00
2018-09-14T20:18:17.708Z,5.70
2018-09-14T20:20:45.772Z,5.03
2018-09-14T20:23:13.870Z,5.10
2018-09-14T20:25:41.951Z,5.20
2018-09-14T20:28:10.044Z,4.00
2018-09-14T20:30:38.191Z,4.80
2018-09-14T20:33:06.263Z,5.43
2018-09-14T20:35:34.356Z,4.13
2018-09-14T20:38:02.458Z,4.50
2018-09-14T20:40:30.546Z,5.70
2018-09-14T20:42:58.672Z,4.50
2018-09-14T20:45:26.730Z,5.10
2018-09-14T20:47:54.824Z,5.43
2018-09-14T20:50:22.962Z,5.40
2018-09-14T20:52:51.076Z,5.40
2018-09-14T20:55:19.182Z,5.47
2018-09-14T20:57:47.283Z,4.80
2018-09-14T21:00:18.069Z,5.10
2018-09-14T21:02:46.817Z,5.97
2018-09-14T21:05:14.982Z,4.90
2018-09-14T21:07:43.159Z,5.23
2018-09-14T21:10:11.359Z,4.93
2018-09-14T21:12:39.447Z,5.67
2018-09-14T21:15:07.544Z,4.50
2018-09-14T21:17:35.646Z,5.07
2018-09-14T21:20:03.951Z,5.60
2018-09-14T21:22:32.113Z,5.00
2018-09-14T21:25:00.148Z,4.43
2018-09-14T21:27:28.235Z,4.73
2018-09-14T21:29:56.343Z,4.90
2018-09-14T21:32:24.427Z,5.17
2018-09-14T21:34:52.535Z,5.10
2018-09-14T21:37:20.628Z,5.70
2018-09-14T21:39:48.722Z,5.30
2018-09-14T21:42:16.814Z,5.27
2018-09-14T21:44:44.901Z,4.70
2018-09-14T21:47:14.409Z,5.27
2018-09-14T21:49:42.667Z,4.60
2018-09-14T21:52:10.783Z,5.23
2018-09-14T21:54:38.887Z,4.97
2018-09-14T21:57:07.025Z,5.07
2018-09-14T21:59:35.119Z,4.60
2018-09-14T22:02:03.260Z,5.17
2018-09-14T22:04:31.354Z,5.57
2018-09-14T22:06:59.440Z,5.33
2018-09-14T22:09:27.512Z,6.10
2018-09-14T22:11:55.617Z,5.73
2018-09-14T22:14:23.703Z,5.73
2018-09-14T22:16:52.224Z,5.27
2018-09-14T22:19:20.371Z,5.10
2018-09-14T22:21:48.471Z,5.47
2018-09-14T22:24:16.564Z,6.10
2018-09-14T22:26:44.659Z,6.00
2018-09-14T22:29:12.747Z,5.57
2018-09-14T22:31:40.843Z,5.87
2018-09-14T22:34:08.941Z,5.20
2018-09-14T22:36:37.026Z,5.60
2018-09-14T22:39:07.339Z,4.77
2018-09-14T22:41:35.512Z,5.93
2018-09-14T22:44:03.602Z,5.50
2018-09-14T22:46:31.695Z,6.10
2018-09-14T22:48:59.785Z,5.70
2018-09-14T22:51:27.910Z,6.20
2018-09-14T22:53:56.012Z,5.93
2018-09-14T22:56:24.179Z,5.80
2018-09-14T22:58:52.284Z,6.00
2018-09-14T23:01:20.560Z,6.73
2018-09-14T23:03:49.757Z,6.23
2018-09-14T23:06:17.855Z,5.70
2018-09-14T23:08:46.319Z,6.37
2018-09-14T23:11:14.459Z,6.53
2018-09-14T23:13:42.665Z,7.50
2018-09-14T23:16:10.754Z,6.10
2018-09-14T23:18:38.855Z,6.03
2018-09-14T23:21:07.054Z,7.30
2018-09-14T23:23:35.146Z,7.83
2018-09-14T23:26:06.802Z,8.90
2018-09-14T23:28:34.899Z,7.40
2018-09-14T23:31:02.986Z,7.33
2018-09-14T23:33:31.088Z,7.00
2018-09-14T23:35:59.170Z,7.40
2018-09-14T23:38:27.294Z,6.90
2018-09-14T23:40:55.369Z,8.03
2018-09-14T23:43:23.477Z,7.93
2018-09-14T23:45:51.584Z,8.00
2018-09-14T23:48:19.849Z,7.27
2018-09-14T23:50:48.005Z,7.27
2018-09-14T23:53:16.177Z,7.17
2018-09-14T23:55:44.272Z,8.27
2018-09-14T23:58:12.437Z,7.53
